EmailTwitter


Surface observations / United Kingdom / EGLL (03772)

Regions: Quebec | Canada | USA | Europe | France | UK | Elsewhere
Station
Display
Info & Location for EGLL (03772) | Help decoding METAR

Weather Conditions observed on 2017/04/29 at 19:20 UTC at LONDON/HEATHROW, UK (EGLL)

Temperature: 13.0 Celsius.

Dewpoint: 3.0 Celsius.

Relative Humidity: 51%

Winds: Southeast at 20 km/h or 11 knots.

Mean Sea level Pressure: 101.10 kilopascals.

Horizontal visibility: 6.21 statute miles or 9.94 kilometers.

Coded METAR:

EGLL 291920Z AUTO 12011KT 9999 NCD 13/03 Q1011 NOSIG=